Time;durP1;ratioP1;P1;durP2;ratioP2;P2;SDS_P1;SDS_P2;PMS_P1;PMS_P2;Temp;Humidity;BMP_temperature;BMP_pressure;BME280_temperature;BME280_humidity;BME280_pressure;Samples;Min_cycle;Max_cycle;Signal;HPM_P1;HPM_P2
2021/06/24 00:02:17;;;;;;;2.37;1.70;;;;;;;14.96;93.59;101490.03;5096905;28;20487;-72
2021/06/24 00:04:45;;;;;;;3.07;1.43;;;;;;;15.00;93.65;101480.94;5096922;28;20447;-72
2021/06/24 00:07:12;;;;;;;2.17;1.27;;;;;;;14.95;94.33;101470.16;5096777;28;20480;-73
2021/06/24 00:09:38;;;;;;;2.30;1.90;;;;;;;14.88;94.76;101473.31;5096902;28;20447;-72
2021/06/24 00:12:05;;;;;;;3.87;1.53;;;;;;;15.04;94.41;101459.31;5096404;28;20469;-72
2021/06/24 00:14:32;;;;;;;1.90;1.80;;;;;;;15.09;93.85;101453.72;5096791;28;20444;-72
2021/06/24 00:16:58;;;;;;;2.10;1.70;;;;;;;15.05;93.88;101448.09;5096411;28;20940;-72
2021/06/24 00:19:25;;;;;;;4.90;1.77;;;;;;;15.05;93.81;101439.06;5096614;28;20451;-72
2021/06/24 00:21:53;;;;;;;4.07;1.87;;;;;;;15.08;93.94;101439.28;5096520;28;20479;-72
2021/06/24 00:24:19;;;;;;;1.00;0.90;;;;;;;15.01;94.83;101443.56;5096291;28;20980;-72
2021/06/24 00:26:45;;;;;;;5.17;2.40;;;;;;;15.08;94.38;101442.00;5096457;28;20858;-72
2021/06/24 00:29:12;;;;;;;4.73;1.70;;;;;;;15.05;94.75;101450.00;5096452;28;20440;-72
2021/06/24 00:31:38;;;;;;;2.07;1.67;;;;;;;14.96;95.22;101458.09;5096349;28;20456;-72
2021/06/24 00:34:05;;;;;;;2.20;1.60;;;;;;;15.00;95.03;101458.31;5096425;28;20443;-72
2021/06/24 00:36:31;;;;;;;3.23;2.03;;;;;;;15.05;94.48;101450.81;5096338;28;20436;-72
2021/06/24 00:39:00;;;;;;;2.87;1.53;;;;;;;15.04;94.46;101453.84;5096027;28;20820;-72
2021/06/24 00:41:27;;;;;;;3.00;2.13;;;;;;;14.98;95.34;101452.38;5096188;28;20509;-72
2021/06/24 00:43:54;;;;;;;2.17;1.80;;;;;;;14.92;94.16;101461.75;5096183;28;20437;-72
2021/06/24 00:46:21;;;;;;;2.03;1.77;;;;;;;14.97;92.18;101451.56;5096100;28;20837;-72
2021/06/24 00:48:56;;;;;;;3.27;1.77;;;;;;;15.06;90.92;101459.81;5096092;28;20440;-72
2021/06/24 00:51:22;;;;;;;2.00;1.80;;;;;;;15.07;90.95;101459.50;5095979;28;20463;-72
2021/06/24 00:53:49;;;;;;;3.23;1.87;;;;;;;15.04;91.79;101459.31;5096048;28;20811;-72
2021/06/24 00:56:26;;;;;;;2.10;1.90;;;;;;;15.04;92.95;101448.38;5095943;28;20444;-72
2021/06/24 00:58:53;;;;;;;2.13;1.80;;;;;;;14.97;94.32;101451.56;5095986;28;20429;-72
2021/06/24 01:01:19;;;;;;;2.20;1.67;;;;;;;14.90;96.02;101459.34;5095875;28;20467;-72
2021/06/24 01:03:46;;;;;;;2.10;1.90;;;;;;;14.93;95.98;101458.75;5095506;28;20448;-71
2021/06/24 01:06:12;;;;;;;2.40;2.10;;;;;;;14.96;95.42;101458.09;5095701;28;20441;-72
2021/06/24 01:08:38;;;;;;;1.97;1.77;;;;;;;15.03;95.37;101463.16;5095688;28;20445;-72
2021/06/24 01:11:05;;;;;;;4.57;2.20;;;;;;;15.10;94.88;101458.09;5094346;28;20472;-72
2021/06/24 01:13:34;;;;;;;2.50;2.07;;;;;;;15.17;94.30;101465.81;5095662;28;20425;-72
2021/06/24 01:16:00;;;;;;;2.30;1.53;;;;;;;15.16;94.41;101459.56;5095405;28;20953;-72
2021/06/24 01:18:26;;;;;;;4.60;2.00;;;;;;;15.12;94.05;101455.84;5095197;28;20432;-72
2021/06/24 01:20:53;;;;;;;1.73;1.50;;;;;;;15.08;94.66;101460.28;5095366;28;20432;-72
2021/06/24 01:23:20;;;;;;;5.73;1.90;;;;;;;15.10;94.38;101460.81;5095408;28;20484;-72
2021/06/24 01:25:48;;;;;;;2.27;1.70;;;;;;;15.13;94.59;101468.34;5094918;28;20930;-72
2021/06/24 01:28:14;;;;;;;2.70;1.90;;;;;;;15.19;94.23;101466.34;5095027;28;20487;-72
2021/06/24 01:30:43;;;;;;;8.93;2.23;;;;;;;15.21;94.39;101475.00;5101574;28;20444;-71
2021/06/24 01:33:11;;;;;;;11.63;2.40;;;;;;;15.11;94.91;101476.88;5094945;28;20433;-72
2021/06/24 01:35:39;;;;;;;1.70;1.50;;;;;;;15.16;95.16;101488.78;5094890;28;20815;-71
2021/06/24 01:38:07;;;;;;;2.57;1.80;;;;;;;15.22;94.52;101485.59;5095119;28;20428;-73
2021/06/24 01:40:35;;;;;;;2.10;1.90;;;;;;;15.10;95.06;101491.63;5095093;28;20445;-72
2021/06/24 01:43:03;;;;;;;2.23;1.53;;;;;;;15.11;95.19;101500.63;5094673;28;20985;-72
2021/06/24 01:45:30;;;;;;;4.03;2.47;;;;;;;15.17;95.70;101491.19;5095006;28;20879;-73
2021/06/24 01:47:56;;;;;;;6.03;2.33;;;;;;;15.28;94.65;101495.28;5094852;28;20487;-73
2021/06/24 01:50:23;;;;;;;2.40;2.00;;;;;;;15.31;94.43;101486.47;5094591;28;20946;-72
2021/06/24 01:52:50;;;;;;;2.03;1.83;;;;;;;15.31;93.17;101493.84;5094456;28;20969;-72
2021/06/24 01:55:17;;;;;;;2.00;1.43;;;;;;;15.34;90.75;101485.84;5094817;28;20468;-72
2021/06/24 01:57:44;;;;;;;1.37;1.27;;;;;;;15.32;89.72;101487.31;5094780;28;20447;-72
2021/06/24 02:00:14;;;;;;;3.67;2.43;;;;;;;15.23;90.08;101479.03;5094758;28;20440;-72
2021/06/24 02:02:43;;;;;;;2.80;2.20;;;;;;;15.17;90.54;101483.00;5094657;28;20461;-72
2021/06/24 02:05:11;;;;;;;1.77;1.63;;;;;;;15.19;89.46;101478.06;5094690;28;20436;-72
2021/06/24 02:07:39;;;;;;;1.57;1.47;;;;;;;15.31;91.03;101475.53;5094523;28;20483;-72
2021/06/24 02:10:07;;;;;;;3.03;1.77;;;;;;;15.33;91.97;101465.13;5094613;28;20440;-72
2021/06/24 02:12:35;;;;;;;1.90;1.20;;;;;;;15.25;92.95;101460.44;5094033;28;20855;-72
2021/06/24 02:15:02;;;;;;;2.40;1.97;;;;;;;15.27;93.66;101452.75;5094449;28;20441;-72
2021/06/24 02:17:29;;;;;;;4.67;1.97;;;;;;;15.26;93.96;101453.03;5094381;28;20429;-72
2021/06/24 02:19:56;;;;;;;1.57;1.47;;;;;;;15.20;94.89;101446.91;5094364;28;20440;-72
2021/06/24 02:22:22;;;;;;;2.60;1.90;;;;;;;15.30;94.51;101443.91;5094067;28;20829;-73
2021/06/24 02:24:49;;;;;;;2.17;1.90;;;;;;;15.33;94.61;101446.03;5094316;28;20447;-73
2021/06/24 02:27:15;;;;;;;2.77;1.30;;;;;;;15.31;94.76;101445.53;5094183;28;20483;-73
2021/06/24 02:29:41;;;;;;;3.60;2.03;;;;;;;15.29;95.39;101436.84;5094229;28;20452;-73
2021/06/24 02:32:08;;;;;;;4.80;3.03;;;;;;;15.41;94.97;101435.47;5093764;28;20457;-73
2021/06/24 02:34:36;;;;;;;2.10;1.60;;;;;;;15.43;94.87;101438.69;5094146;28;20448;-74
2021/06/24 02:37:03;;;;;;;2.97;1.70;;;;;;;15.47;94.78;101439.69;5094072;28;20463;-73
2021/06/24 02:39:29;;;;;;;3.47;1.70;;;;;;;15.51;94.77;101429.75;5094011;28;20816;-73
2021/06/24 02:41:56;;;;;;;2.33;2.00;;;;;;;15.51;95.05;101429.75;5093620;28;21000;-74
2021/06/24 02:44:22;;;;;;;2.70;2.30;;;;;;;15.55;94.66;101422.53;5093646;28;20944;-74
2021/06/24 02:46:49;;;;;;;4.60;2.03;;;;;;;15.50;95.42;101417.22;5093820;28;20445;-74
2021/06/24 02:49:15;;;;;;;1.70;1.60;;;;;;;15.53;95.17;101422.03;5093792;28;20445;-73
2021/06/24 02:51:46;;;;;;;3.30;1.83;;;;;;;15.62;93.04;101414.69;5093437;28;20977;-73
2021/06/24 02:54:12;;;;;;;2.47;1.23;;;;;;;15.63;92.44;101405.41;5093544;28;20475;-74
2021/06/24 02:56:39;;;;;;;3.10;1.90;;;;;;;15.63;91.84;101405.41;5093433;28;20964;-74
2021/06/24 02:59:06;;;;;;;2.90;2.10;;;;;;;15.70;92.46;101405.75;5093731;28;20440;-74
2021/06/24 03:01:32;;;;;;;2.57;2.00;;;;;;;15.75;92.21;101404.81;5093579;28;20465;-73
2021/06/24 03:03:59;;;;;;;2.30;2.07;;;;;;;15.72;93.63;101403.53;5093396;28;20433;-73
2021/06/24 03:06:25;;;;;;;4.93;2.87;;;;;;;15.76;92.61;101401.78;5093596;28;20441;-72
2021/06/24 03:08:53;;;;;;;3.00;2.33;;;;;;;15.73;92.93;101410.59;5093454;28;20491;-73
2021/06/24 03:11:19;;;;;;;3.23;2.00;;;;;;;15.78;93.30;101407.72;5093270;28;20472;-73
2021/06/24 03:13:48;;;;;;;4.37;2.50;;;;;;;15.84;93.54;101408.38;5093554;28;20435;-73
2021/06/24 03:16:15;;;;;;;2.27;1.40;;;;;;;15.91;93.05;101413.41;5093439;28;20548;-73
2021/06/24 03:18:41;;;;;;;3.87;1.83;;;;;;;15.93;93.31;101408.41;5093444;28;20440;-73
2021/06/24 03:21:08;;;;;;;6.60;2.80;;;;;;;15.92;93.21;101404.88;5099757;28;20460;-73
2021/06/24 03:23:34;;;;;;;2.70;2.00;;;;;;;15.99;93.08;101407.16;5086331;28;20460;-73
2021/06/24 03:26:02;;;;;;;2.80;1.90;;;;;;;15.93;93.25;101402.94;5073223;28;20441;-74
2021/06/24 03:28:28;;;;;;;2.30;1.57;;;;;;;15.97;93.55;101401.19;5073198;28;20487;-73
2021/06/24 03:30:55;;;;;;;3.80;1.93;;;;;;;16.03;92.30;101405.41;5073107;28;20437;-73
2021/06/24 03:33:21;;;;;;;2.20;1.87;;;;;;;15.97;93.00;101409.38;5073538;28;20829;-73
2021/06/24 03:35:50;;;;;;;4.07;3.33;;;;;;;15.97;92.94;101404.72;5076961;28;20437;-73
2021/06/24 03:38:17;;;;;;;4.17;1.97;;;;;;;15.95;92.67;101397.97;5077188;28;20441;-72
2021/06/24 03:40:43;;;;;;;4.10;1.97;;;;;;;15.94;92.30;101399.09;5077100;28;20448;-73
2021/06/24 03:43:12;;;;;;;2.83;2.40;;;;;;;15.97;91.04;101399.25;5077185;28;20437;-72
2021/06/24 03:45:39;;;;;;;3.40;2.90;;;;;;;15.92;90.17;101388.47;5077075;28;20433;-72
2021/06/24 03:48:07;;;;;;;2.80;2.00;;;;;;;15.93;90.52;101384.63;5076977;28;20524;-72
2021/06/24 03:50:33;;;;;;;2.70;1.60;;;;;;;15.98;91.54;101380.94;5076713;28;20463;-72
2021/06/24 03:53:00;;;;;;;2.40;2.00;;;;;;;15.99;92.02;101371.63;5076962;28;20460;-72
2021/06/24 03:55:37;;;;;;;4.90;2.83;;;;;;;16.04;92.42;101366.00;5076645;28;20452;-72
2021/06/24 03:58:03;;;;;;;1.73;1.37;;;;;;;16.04;92.36;101361.34;5077990;28;20847;-72
2021/06/24 04:00:31;;;;;;;2.67;2.10;;;;;;;16.06;92.44;101358.28;5076798;28;20441;-72
2021/06/24 04:02:58;;;;;;;9.80;3.43;;;;;;;16.07;92.44;101352.53;5076681;28;20457;-72
2021/06/24 04:05:24;;;;;;;4.13;2.90;;;;;;;16.02;92.37;101347.19;5076705;28;20456;-72
2021/06/24 04:07:51;;;;;;;6.90;2.20;;;;;;;16.00;92.58;101348.66;5076560;28;20834;-73
2021/06/24 04:10:17;;;;;;;3.80;2.60;;;;;;;16.03;92.84;101350.75;5076280;28;20960;-72
2021/06/24 04:12:44;;;;;;;9.50;2.60;;;;;;;16.08;92.42;101343.19;5076076;28;20993;-73
2021/06/24 04:15:11;;;;;;;4.80;2.47;;;;;;;16.15;92.73;101345.44;5076497;28;20448;-70
2021/06/24 04:17:39;;;;;;;3.23;2.30;;;;;;;16.20;92.77;101339.81;5076437;28;20441;-71
2021/06/24 04:20:07;;;;;;;3.93;2.13;;;;;;;16.20;92.69;101342.53;5076439;28;20452;-70
2021/06/24 04:22:33;;;;;;;2.30;1.90;;;;;;;16.26;93.10;101340.47;5075994;28;20993;-71
2021/06/24 04:25:00;;;;;;;5.03;2.50;;;;;;;16.28;93.07;101341.75;5076334;28;20437;-74
2021/06/24 04:27:26;;;;;;;2.20;1.97;;;;;;;16.32;92.30;101348.19;5076315;28;20441;-72
2021/06/24 04:29:53;;;;;;;3.27;2.73;;;;;;;16.31;92.90;101343.84;5076324;28;20437;-72
2021/06/24 04:32:19;;;;;;;3.67;2.17;;;;;;;16.35;92.89;101350.28;5075797;28;20457;-72
2021/06/24 04:34:47;;;;;;;5.80;2.23;;;;;;;16.36;92.78;101351.09;5076141;28;20445;-70
2021/06/24 04:37:13;;;;;;;3.87;1.80;;;;;;;16.38;92.34;101352.41;5076106;28;20519;-68
2021/06/24 04:39:40;;;;;;;2.67;2.47;;;;;;;16.41;92.24;101350.94;5076058;28;20450;-70
2021/06/24 04:42:07;;;;;;;3.93;2.10;;;;;;;16.48;92.63;101353.19;5075627;28;20465;-69
2021/06/24 04:44:33;;;;;;;8.63;2.10;;;;;;;16.53;92.09;101363.97;5075924;28;20441;-70
2021/06/24 04:46:59;;;;;;;2.30;1.90;;;;;;;16.57;91.87;101365.75;5075947;28;20437;-70
2021/06/24 04:49:26;;;;;;;5.27;2.23;;;;;;;16.57;92.37;101373.94;5075442;28;20477;-70
2021/06/24 04:51:54;;;;;;;3.00;2.10;;;;;;;16.58;91.71;101377.47;5075698;28;20993;-70
2021/06/24 04:54:20;;;;;;;4.30;2.40;;;;;;;16.63;90.98;101380.06;5075870;28;20474;-70
2021/06/24 04:56:46;;;;;;;4.73;2.00;;;;;;;16.63;90.23;101388.25;5075754;28;20494;-70
2021/06/24 04:59:13;;;;;;;2.30;1.93;;;;;;;16.61;89.48;101393.25;5075386;28;20958;-70
2021/06/24 05:01:40;;;;;;;2.67;2.00;;;;;;;16.64;89.56;101389.84;5075576;28;20465;-70
2021/06/24 05:04:06;;;;;;;2.43;2.23;;;;;;;16.69;89.93;101388.88;5075624;28;20845;-70
2021/06/24 05:06:34;;;;;;;3.27;1.93;;;;;;;16.75;90.74;101388.44;5075282;28;20853;-70
2021/06/24 05:09:04;;;;;;;3.23;2.40;;;;;;;16.77;91.42;101397.13;5075459;28;20575;-70
2021/06/24 05:11:31;;;;;;;2.27;1.83;;;;;;;16.81;91.95;101395.34;5075239;28;20481;-70
2021/06/24 05:13:57;;;;;;;2.80;2.00;;;;;;;16.87;91.91;101407.75;5081866;28;20468;-71
2021/06/24 05:16:24;;;;;;;2.17;2.00;;;;;;;16.92;92.21;101406.00;5075454;28;20441;-71
2021/06/24 05:18:50;;;;;;;5.10;2.53;;;;;;;16.99;92.04;101406.28;5075340;28;20438;-71
2021/06/24 05:21:18;;;;;;;3.13;1.90;;;;;;;17.05;91.85;101407.75;5075267;28;20472;-71
2021/06/24 05:23:45;;;;;;;2.03;1.83;;;;;;;17.04;91.79;101403.38;5074977;28;20835;-71
2021/06/24 05:26:13;;;;;;;3.67;2.90;;;;;;;17.10;90.49;101416.59;5075229;28;20445;-71
2021/06/24 05:28:39;;;;;;;1.90;1.77;;;;;;;17.06;89.81;101406.63;5075049;28;20477;-70
2021/06/24 05:31:05;;;;;;;4.40;3.03;;;;;;;17.06;88.61;101412.09;5075055;28;20457;-71
2021/06/24 05:33:32;;;;;;;2.43;1.67;;;;;;;17.06;88.60;101403.88;5075052;28;20437;-70
2021/06/24 05:35:59;;;;;;;4.80;1.77;;;;;;;17.06;89.63;101406.63;5075006;28;20437;-71
2021/06/24 05:38:26;;;;;;;2.50;1.70;;;;;;;17.04;91.22;101401.44;5074645;28;20950;-71
2021/06/24 05:40:53;;;;;;;13.20;2.40;;;;;;;17.05;92.79;101399.53;5074839;28;20845;-71
2021/06/24 05:43:21;;;;;;;6.43;3.30;;;;;;;17.05;93.56;101396.78;5074898;28;20541;-70
2021/06/24 05:45:47;;;;;;;3.30;2.50;;;;;;;17.09;94.28;101395.03;5074492;28;20957;-70
2021/06/24 05:48:14;;;;;;;2.80;2.60;;;;;;;17.02;95.72;101394.69;5074672;28;20485;-70
2021/06/24 05:50:41;;;;;;;5.37;2.93;;;;;;;17.06;95.91;101398.41;5074663;28;20438;-71
2021/06/24 05:53:08;;;;;;;5.30;2.53;;;;;;;17.05;95.45;101394.06;5074393;28;20437;-70
2021/06/24 05:55:49;;;;;;;3.43;1.80;;;;;;;17.04;96.37;101395.16;5074667;28;20444;-70
2021/06/24 05:58:18;;;;;;;4.77;3.03;;;;;;;17.04;97.13;101403.38;5074281;28;20483;-70
2021/06/24 06:00:46;;;;;;;2.30;1.93;;;;;;;17.06;97.32;101401.13;5074101;28;20463;-71
2021/06/24 06:03:13;;;;;;;2.10;1.90;;;;;;;17.09;97.23;101398.56;5074457;28;20465;-71
2021/06/24 06:05:39;;;;;;;2.50;1.87;;;;;;;17.13;97.42;101409.63;5074389;28;20494;-71
2021/06/24 06:08:08;;;;;;;3.10;2.57;;;;;;;17.15;97.24;101412.88;5074335;28;20488;-70
2021/06/24 06:10:36;;;;;;;2.80;2.17;;;;;;;17.11;97.78;101404.50;5073856;28;20445;-70
2021/06/24 06:13:04;;;;;;;2.83;1.87;;;;;;;17.12;98.57;101405.31;5074223;28;20461;-70
2021/06/24 06:15:31;;;;;;;3.90;2.20;;;;;;;17.10;99.02;101407.56;5074172;28;20434;-70
2021/06/24 06:17:59;;;;;;;4.57;2.63;;;;;;;17.07;99.07;101408.22;5074158;28;20437;-70
2021/06/24 06:20:25;;;;;;;2.60;2.07;;;;;;;17.11;100.00;101414.66;5074030;28;20445;-70
2021/06/24 06:22:52;;;;;;;3.13;2.10;;;;;;;17.10;100.00;101418.53;5073769;28;20461;-70
2021/06/24 06:25:18;;;;;;;2.33;2.13;;;;;;;17.12;100.00;101419.78;5073983;28;20433;-71
2021/06/24 06:27:44;;;;;;;3.37;2.50;;;;;;;17.18;100.00;101420.44;5073969;28;20456;-71
2021/06/24 06:30:12;;;;;;;6.17;2.00;;;;;;;17.24;100.00;101421.88;5073833;28;20481;-71
2021/06/24 06:32:38;;;;;;;7.53;3.03;;;;;;;17.22;100.00;101415.94;5074003;28;20475;-71
2021/06/24 06:35:07;;;;;;;3.60;1.80;;;;;;;17.22;100.00;101415.94;5073482;28;20942;-71
2021/06/24 06:37:34;;;;;;;2.90;2.60;;;;;;;17.26;100.00;101419.59;5073797;28;20441;-71
2021/06/24 06:40:00;;;;;;;3.60;2.77;;;;;;;17.26;100.00;101416.84;5073765;28;20441;-70
2021/06/24 06:42:27;;;;;;;2.17;1.97;;;;;;;17.29;100.00;101416.22;5073649;28;20495;-70
2021/06/24 06:44:53;;;;;;;4.10;2.37;;;;;;;17.36;100.00;101421.22;5073384;28;20822;-70
2021/06/24 06:47:19;;;;;;;5.30;2.17;;;;;;;17.43;100.00;101421.50;5073614;28;20445;-71
2021/06/24 06:49:46;;;;;;;4.27;2.73;;;;;;;17.45;100.00;101423.94;5073564;28;20492;-71
2021/06/24 06:52:14;;;;;;;2.40;2.17;;;;;;;17.38;100.00;101427.94;5073537;28;20503;-71
2021/06/24 06:54:40;;;;;;;5.20;2.70;;;;;;;17.39;100.00;101432.28;5073224;28;20954;-71
2021/06/24 06:57:07;;;;;;;3.17;2.30;;;;;;;17.49;100.00;101431.16;5073213;28;20950;-73
2021/06/24 06:59:35;;;;;;;3.80;2.77;;;;;;;17.51;100.00;101430.81;5073543;28;20463;-74
2021/06/24 07:02:01;;;;;;;7.00;2.37;;;;;;;17.51;100.00;101437.09;5073416;28;20473;-74
2021/06/24 07:04:28;;;;;;;3.53;2.83;;;;;;;17.56;100.00;101431.44;5073372;28;20446;-74
2021/06/24 07:06:54;;;;;;;5.20;3.37;;;;;;;17.60;100.00;101435.13;5077902;28;20429;-74
2021/06/24 07:09:22;;;;;;;4.83;2.97;;;;;;;17.62;100.00;101429.34;5074586;28;20833;-73
2021/06/24 07:11:48;;;;;;;3.10;2.50;;;;;;;17.62;100.00;101429.34;5072934;28;20650;-71
2021/06/24 07:14:15;;;;;;;5.17;3.20;;;;;;;17.65;100.00;101428.69;5073305;28;20445;-71
2021/06/24 07:16:41;;;;;;;3.40;2.30;;;;;;;17.66;100.00;101424.78;5073254;28;20452;-71
2021/06/24 07:19:07;;;;;;;4.80;3.10;;;;;;;17.67;100.00;101431.09;5073369;28;20441;-71
2021/06/24 07:21:34;;;;;;;3.47;2.67;;;;;;;17.59;100.00;101428.06;5073187;28;20465;-71
2021/06/24 07:24:00;;;;;;;4.40;2.70;;;;;;;17.60;100.00;101432.41;5073268;28;20444;-71
2021/06/24 07:26:28;;;;;;;4.90;3.43;;;;;;;17.58;100.00;101433.88;5072964;28;20441;-73
2021/06/24 07:28:55;;;;;;;4.97;2.83;;;;;;;17.55;100.00;101434.53;5072498;28;20567;-71
2021/06/24 07:31:21;;;;;;;4.47;2.27;;;;;;;17.61;100.00;101439.47;5072378;28;20473;-71
2021/06/24 07:33:48;;;;;;;3.90;2.70;;;;;;;17.56;100.00;101444.34;5072507;28;20438;-71
2021/06/24 07:36:14;;;;;;;4.43;3.50;;;;;;;17.51;100.00;101441.78;5072155;28;20437;-71
2021/06/24 07:38:41;;;;;;;4.63;3.27;;;;;;;17.49;100.00;101444.84;5072413;28;20437;-71
2021/06/24 07:41:07;;;;;;;4.67;3.13;;;;;;;17.48;100.00;101439.69;5072389;28;20465;-71
2021/06/24 07:43:35;;;;;;;4.60;2.97;;;;;;;17.43;100.00;101440.66;5072614;28;20448;-72
2021/06/24 07:46:02;;;;;;;3.93;2.43;;;;;;;17.35;100.00;101434.09;5072398;28;20441;-73
2021/06/24 07:48:28;;;;;;;3.87;3.10;;;;;;;17.33;100.00;101427.34;5072877;28;20461;-72
2021/06/24 07:50:54;;;;;;;3.57;2.57;;;;;;;17.32;100.00;101425.72;5072693;28;20456;-72
2021/06/24 07:53:21;;;;;;;11.30;3.77;;;;;;;17.30;100.00;101417.03;5072854;28;20437;-72
2021/06/24 07:55:47;;;;;;;8.67;3.83;;;;;;;17.32;100.00;101407.34;5072940;28;20444;-73
2021/06/24 07:58:14;;;;;;;4.67;2.70;;;;;;;17.31;100.00;101403.03;5072882;28;20441;-73
2021/06/24 08:00:42;;;;;;;7.10;3.53;;;;;;;17.35;100.00;101401.25;5072761;28;20468;-72
2021/06/24 08:03:09;;;;;;;3.60;3.10;;;;;;;17.42;100.00;101400.72;5072827;28;20445;-71
2021/06/24 08:05:35;;;;;;;6.00;4.03;;;;;;;17.45;100.00;101389.13;5072707;28;20828;-72
2021/06/24 08:08:01;;;;;;;4.70;2.40;;;;;;;17.49;100.00;101390.06;5072923;28;20444;-72
2021/06/24 08:10:28;;;;;;;9.33;4.80;;;;;;;17.55;100.00;101390.69;5072380;28;20993;-72
2021/06/24 08:12:55;;;;;;;4.70;3.10;;;;;;;17.61;100.00;101390.16;5072301;28;20469;-69
2021/06/24 08:15:23;;;;;;;4.30;2.63;;;;;;;17.70;100.00;101392.88;5072681;28;20452;-71
2021/06/24 08:17:51;;;;;;;4.07;2.73;;;;;;;17.85;100.00;101395.09;5072655;28;20502;-72
2021/06/24 08:20:17;;;;;;;7.87;4.90;;;;;;;17.99;100.00;101392.13;5074399;28;20452;-71
2021/06/24 08:22:44;;;;;;;5.30;3.73;;;;;;;18.02;100.00;101405.16;5076211;28;20465;-72
2021/06/24 08:25:13;;;;;;;8.57;3.77;;;;;;;18.06;100.00;101410.78;5076327;28;20449;-72
2021/06/24 08:27:39;;;;;;;4.37;2.50;;;;;;;18.11;100.00;101411.41;5076201;28;20813;-71
2021/06/24 08:30:07;;;;;;;3.93;3.30;;;;;;;18.16;100.00;101410.41;5076132;28;20473;-71
2021/06/24 08:32:34;;;;;;;4.77;3.50;;;;;;;18.20;100.00;101408.63;5076134;28;20461;-72
2021/06/24 08:35:02;;;;;;;4.73;3.70;;;;;;;18.23;100.00;101405.19;5075803;28;20961;-72
2021/06/24 08:37:28;;;;;;;2.87;2.30;;;;;;;18.26;100.00;101403.72;5075657;28;20950;-72
2021/06/24 08:39:54;;;;;;;4.93;3.00;;;;;;;18.31;100.00;101398.03;5075949;28;20440;-71
2021/06/24 08:42:21;;;;;;;4.97;3.37;;;;;;;18.41;100.00;101403.13;5075939;28;20460;-71
2021/06/24 08:44:47;;;;;;;4.60;3.00;;;;;;;18.49;100.00;101395.97;5075998;28;20452;-72
2021/06/24 08:47:15;;;;;;;5.57;3.30;;;;;;;18.48;100.00;101397.91;5075910;28;20449;-74
2021/06/24 08:49:43;;;;;;;5.57;3.47;;;;;;;18.45;100.00;101398.59;5075763;28;20487;-74
2021/06/24 08:52:12;;;;;;;7.20;3.23;;;;;;;18.31;100.00;101396.09;5075823;28;20464;-72
2021/06/24 08:54:38;;;;;;;10.00;4.30;;;;;;;18.36;100.00;101411.56;5075823;28;20477;-72
2021/06/24 08:57:05;;;;;;;2.90;2.30;;;;;;;18.37;100.00;101414.00;5075789;28;20854;-72
2021/06/24 08:59:32;;;;;;;7.50;4.10;;;;;;;18.29;100.00;101408.56;5075628;28;20445;-71
2021/06/24 09:02:00;;;;;;;6.10;3.73;;;;;;;18.28;100.00;101413.25;5082155;28;20461;-72
2021/06/24 09:04:28;;;;;;;4.90;3.63;;;;;;;18.29;100.00;101414.84;5075212;28;20824;-72
2021/06/24 09:07:06;;;;;;;9.30;3.87;;;;;;;18.35;100.00;101419.00;5075448;28;20447;-72
2021/06/24 09:09:36;;;;;;;8.53;3.20;;;;;;;18.35;100.00;101424.47;5075460;28;20472;-72
2021/06/24 09:12:05;;;;;;;5.17;3.40;;;;;;;18.43;100.00;101424.75;5074989;28;20476;-72
2021/06/24 09:14:42;;;;;;;5.60;3.47;;;;;;;18.55;100.00;101422.06;5075094;28;20437;-71
2021/06/24 09:17:09;;;;;;;7.90;3.50;;;;;;;18.58;100.00;101432.38;5075425;28;20433;-74
2021/06/24 09:19:39;;;;;;;5.80;3.47;;;;;;;18.67;100.00;101424.88;5075069;28;20440;-74
2021/06/24 09:22:08;;;;;;;4.67;3.43;;;;;;;18.71;100.00;101436.84;5075240;28;20493;-71
2021/06/24 09:24:38;;;;;;;9.10;3.00;;;;;;;18.79;100.00;101438.72;5081719;28;20471;-71
2021/06/24 09:27:06;;;;;;;6.40;3.30;;;;;;;18.90;100.00;101437.16;5070752;28;20448;-75
2021/06/24 09:29:33;;;;;;;5.43;4.03;;;;;;;18.98;100.00;101440.16;5057146;28;20482;-71
2021/06/24 09:32:01;;;;;;;4.43;3.17;;;;;;;18.94;100.00;101433.72;5054011;28;20501;-71
2021/06/24 09:34:28;;;;;;;9.90;3.43;;;;;;;18.97;100.00;101439.34;5055500;28;20446;-73
2021/06/24 09:36:59;;;;;;;7.93;3.20;;;;;;;18.87;100.00;101434.28;5074391;28;20445;-72
2021/06/24 09:39:36;;;;;;;5.93;3.10;;;;;;;18.92;100.00;101433.28;5087412;28;20501;-72
2021/06/24 09:42:08;;;;;;;4.30;3.30;;;;;;;18.85;100.00;101434.59;5095052;28;20460;-71
2021/06/24 09:44:37;;;;;;;8.37;4.53;;;;;;;18.87;100.00;101423.31;5094956;28;20432;-72
2021/06/24 09:47:16;;;;;;;5.27;4.00;;;;;;;18.95;100.00;101424.34;5094976;28;20819;-72
2021/06/24 09:49:43;;;;;;;8.70;4.03;;;;;;;18.94;100.00;101425.50;5094870;28;20460;-72
2021/06/24 09:52:10;;;;;;;7.73;4.13;;;;;;;19.04;100.00;101423.16;5094487;28;20456;-71
2021/06/24 09:54:39;;;;;;;15.40;4.20;;;;;;;19.21;100.00;101426.84;5094843;28;20460;-72
2021/06/24 09:57:08;;;;;;;5.30;3.30;;;;;;;19.32;100.00;101434.31;5094848;28;20440;-71
2021/06/24 09:59:38;;;;;;;4.60;3.60;;;;;;;19.37;100.00;101434.13;5095745;28;20791;-72
2021/06/24 10:02:10;;;;;;;5.50;3.30;;;;;;;19.34;100.00;101426.53;5094337;28;20993;-71
2021/06/24 10:04:39;;;;;;;5.20;3.70;;;;;;;19.34;100.00;101423.00;5094540;28;20443;-72
2021/06/24 10:07:10;;;;;;;4.60;3.23;;;;;;;19.31;100.00;101427.25;5094662;28;20440;-72
2021/06/24 10:09:39;;;;;;;4.97;3.20;;;;;;;19.23;100.00;101422.63;5094418;28;20555;-72
2021/06/24 10:12:10;;;;;;;6.77;3.70;;;;;;;19.31;100.00;101431.94;5094197;28;20476;-71
2021/06/24 10:14:38;;;;;;;8.60;4.43;;;;;;;19.35;100.00;101424.63;5094531;28;20469;-72
2021/06/24 10:17:06;;;;;;;7.67;5.23;;;;;;;19.34;100.00;101425.75;5094378;28;20444;-72
2021/06/24 10:19:35;;;;;;;5.40;3.80;;;;;;;19.35;100.00;101425.41;5094359;28;20519;-71
2021/06/24 10:22:06;;;;;;;4.37;3.33;;;;;;;19.34;100.00;101426.53;5094031;28;20464;-71
2021/06/24 10:24:36;;;;;;;4.20;3.20;;;;;;;19.38;100.00;101424.72;5093904;28;20906;-71
2021/06/24 10:27:09;;;;;;;9.20;4.20;;;;;;;19.46;100.00;101425.78;5094208;28;20436;-72
2021/06/24 10:29:56;;;;;;;6.40;3.57;;;;;;;19.52;100.00;101420.84;5093747;28;20867;-72
2021/06/24 10:32:28;;;;;;;4.03;3.23;;;;;;;19.58;100.00;101412.06;5088620;28;20480;-72
2021/06/24 10:34:56;;;;;;;4.40;2.70;;;;;;;19.64;100.00;101416.22;5093765;28;20429;-71
2021/06/24 10:37:23;;;;;;;5.47;4.30;;;;;;;19.61;100.00;101411.41;5093925;28;20440;-72
2021/06/24 10:39:52;;;;;;;5.90;3.27;;;;;;;19.70;100.00;101422.31;5094405;28;20443;-71
2021/06/24 10:42:21;;;;;;;7.97;4.47;;;;;;;19.85;100.00;101410.63;5093990;28;20453;-71
2021/06/24 10:44:50;;;;;;;5.20;2.90;;;;;;;19.95;100.00;101406.59;5094188;28;20432;-72
2021/06/24 10:47:37;;;;;;;5.40;3.70;;;;;;;19.96;100.00;101405.44;5093581;28;20942;-71
2021/06/24 10:50:37;;;;;;;5.43;3.20;;;;;;;19.87;98.90;101404.75;5093732;28;20472;-72
2021/06/24 10:53:39;;;;;;;5.10;3.87;;;;;;;19.59;100.00;101393.63;5093791;28;20468;-72
2021/06/24 10:56:29;;;;;;;5.90;3.47;;;;;;;19.60;100.00;101397.97;5093815;28;20448;-72
2021/06/24 10:58:59;;;;;;;5.70;4.10;;;;;;;19.60;100.00;101386.97;5100968;28;20443;-74
2021/06/24 11:01:40;;;;;;;3.50;2.67;;;;;;;19.71;100.00;101379.91;5093304;28;20456;-75
2021/06/24 11:04:08;;;;;;;6.00;4.20;;;;;;;19.68;100.00;101380.59;5093729;28;20918;-74
2021/06/24 11:06:41;;;;;;;5.90;3.03;;;;;;;19.74;100.00;101387.44;5093745;28;20447;-74
2021/06/24 11:09:15;;;;;;;4.20;3.00;;;;;;;19.62;100.00;101381.97;5093643;28;20429;-73
2021/06/24 11:11:43;;;;;;;10.00;3.17;;;;;;;19.62;100.00;101373.72;5093100;28;20492;-71
2021/06/24 11:14:13;;;;;;;4.93;2.77;;;;;;;19.60;100.00;101374.06;5093509;28;20444;-71
2021/06/24 11:16:40;;;;;;;2.97;2.37;;;;;;;19.55;100.00;101367.97;5093550;28;20494;-72
2021/06/24 11:19:10;;;;;;;10.50;3.27;;;;;;;19.45;99.87;101373.91;5093224;28;20523;-73
2021/06/24 11:21:55;;;;;;;4.73;3.30;;;;;;;19.40;100.00;101375.75;5093486;28;20461;-73
2021/06/24 11:24:26;;;;;;;3.63;2.90;;;;;;;19.35;100.00;101372.41;5093473;28;20427;-72
2021/06/24 11:26:56;;;;;;;4.50;2.90;;;;;;;19.29;100.00;101376.50;5093656;28;20425;-74